Time;durP1;ratioP1;P1;durP2;ratioP2;P2;SDS_P1;SDS_P2;PMS_P1;PMS_P2;Temp;Humidity;BMP_temperature;BMP_pressure;BME280_temperature;BME280_humidity;BME280_pressure;Samples;Min_cycle;Max_cycle;Signal;HPM_P1;HPM_P2
2023/03/30 00:03:01;;;;;;;3.50;1.70;;;;;;;;;;5022044;28;20429;-86
2023/03/30 00:05:29;;;;;;;3.50;2.00;;;;;;;;;;5046749;28;20758;-86
2023/03/30 00:07:55;;;;;;;5.90;2.63;;;;;;;;;;5032879;28;21164;-85
2023/03/30 00:10:21;;;;;;;2.20;1.90;;;;;;;;;;5048750;28;20536;-85
2023/03/30 00:12:50;;;;;;;2.63;2.53;;;;;;;;;;5058208;28;20441;-85
2023/03/30 00:15:17;;;;;;;2.40;2.30;;;;;;;;;;5052671;28;21128;-86
2023/03/30 00:17:44;;;;;;;2.13;2.00;;;;;;;;;;5042054;28;20882;-86
2023/03/30 00:20:11;;;;;;;2.43;2.30;;;;;;;;;;5029022;28;20433;-85
2023/03/30 00:22:40;;;;;;;2.50;2.40;;;;;;;;;;5048066;28;20469;-87
2023/03/30 00:25:07;;;;;;;2.30;2.17;;;;;;;;;;5046047;28;20448;-85
2023/03/30 00:27:37;;;;;;;2.77;2.57;;;;;;;;;;5044441;28;20421;-86
2023/03/30 00:30:04;;;;;;;2.83;2.73;;;;;;;;;;5046236;28;20588;-85
2023/03/30 00:32:30;;;;;;;2.53;2.50;;;;;;;;;;5059229;28;20458;-86
2023/03/30 00:34:56;;;;;;;5.27;2.10;;;;;;;;;;5056591;28;20445;-88
2023/03/30 00:37:24;;;;;;;3.13;2.43;;;;;;;;;;5070509;28;20437;-85
2023/03/30 00:39:52;;;;;;;2.60;2.40;;;;;;;;;;5065158;28;20441;-86
2023/03/30 00:42:21;;;;;;;2.07;1.93;;;;;;;;;;5049145;28;20461;-84
2023/03/30 00:45:02;;;;;;;2.17;2.07;;;;;;;;;;5042162;28;21087;-85
2023/03/30 00:47:29;;;;;;;2.77;2.63;;;;;;;;;;5053889;28;20476;-85
2023/03/30 00:49:55;;;;;;;2.30;2.20;;;;;;;;;;5047882;28;20454;-84
2023/03/30 00:52:23;;;;;;;5.13;2.07;;;;;;;;;;5063486;28;20752;-85
2023/03/30 00:54:52;;;;;;;4.10;3.10;;;;;;;;;;5051589;28;20434;-86
2023/03/30 00:57:44;;;;;;;12.50;6.27;;;;;;;;;;5075210;28;20442;-85
2023/03/30 01:00:11;;;;;;;2.33;2.10;;;;;;;;;;5093732;23;20614;-84
2023/03/30 01:02:41;;;;;;;2.27;2.07;;;;;;;;;;5072458;28;20429;-85
2023/03/30 01:05:10;;;;;;;3.20;2.10;;;;;;;;;;5058787;28;20430;-85
2023/03/30 01:07:37;;;;;;;2.30;2.17;;;;;;;;;;5057766;28;20426;-86
2023/03/30 01:10:04;;;;;;;2.87;2.60;;;;;;;;;;5069472;28;20563;-85
2023/03/30 01:12:30;;;;;;;3.17;2.83;;;;;;;;;;5071892;28;20402;-85
2023/03/30 01:14:56;;;;;;;2.47;2.30;;;;;;;;;;5039202;28;20501;-86
2023/03/30 01:17:35;;;;;;;2.47;2.40;;;;;;;;;;5033899;28;20425;-86
2023/03/30 01:20:22;;;;;;;1.97;1.87;;;;;;;;;;5066760;28;20461;-85
2023/03/30 01:22:51;;;;;;;4.70;2.00;;;;;;;;;;5051457;28;20445;-85
2023/03/30 01:25:38;;;;;;;2.20;2.00;;;;;;;;;;5066472;28;20508;-85
2023/03/30 01:28:13;;;;;;;3.27;1.97;;;;;;;;;;5055725;28;20486;-85
2023/03/30 01:30:56;;;;;;;4.67;2.63;;;;;;;;;;5063102;28;20472;-86
2023/03/30 01:33:29;;;;;;;1.90;1.63;;;;;;;;;;5070828;28;20413;-85
2023/03/30 01:36:00;;;;;;;3.80;2.37;;;;;;;;;;5073125;28;20432;-86
2023/03/30 01:38:44;;;;;;;3.40;1.77;;;;;;;;;;5050046;28;20410;-86
2023/03/30 01:41:13;;;;;;;2.23;2.03;;;;;;;;;;5055731;28;21146;-86
2023/03/30 01:43:50;;;;;;;3.30;2.13;;;;;;;;;;5064747;28;20871;-85
2023/03/30 01:46:29;;;;;;;4.23;2.13;;;;;;;;;;5053836;28;20529;-86
2023/03/30 01:49:01;;;;;;;2.47;1.97;;;;;;;;;;5051329;28;20411;-86
2023/03/30 01:51:31;;;;;;;2.10;2.00;;;;;;;;;;5071765;28;20512;-86
2023/03/30 01:54:18;;;;;;;2.23;2.23;;;;;;;;;;5051863;28;20497;-84
2023/03/30 01:56:50;;;;;;;2.20;2.10;;;;;;;;;;5048111;28;20399;-86
2023/03/30 01:59:19;;;;;;;2.30;2.20;;;;;;;;;;5066761;28;20469;-86
2023/03/30 02:01:49;;;;;;;2.17;2.07;;;;;;;;;;5072210;28;20493;-86
2023/03/30 02:04:16;;;;;;;3.37;1.70;;;;;;;;;;5072386;28;20433;-85
2023/03/30 02:06:46;;;;;;;1.97;1.87;;;;;;;;;;5056284;28;20433;-86
2023/03/30 02:09:14;;;;;;;2.57;2.00;;;;;;;;;;5056418;28;20461;-84
2023/03/30 02:11:43;;;;;;;1.87;1.77;;;;;;;;;;5072793;28;20415;-85
2023/03/30 02:14:10;;;;;;;3.43;1.53;;;;;;;;;;5063421;28;20434;-84
2023/03/30 02:16:41;;;;;;;3.60;1.80;;;;;;;;;;5053521;28;20418;-86
2023/03/30 02:19:08;;;;;;;3.13;3.03;;;;;;;;;;5057036;28;20430;-86
2023/03/30 02:21:46;;;;;;;5.20;2.37;;;;;;;;;;5060461;28;20505;-85
2023/03/30 02:24:17;;;;;;;3.90;2.33;;;;;;;;;;5050537;28;20444;-84
2023/03/30 02:26:49;;;;;;;1.67;1.57;;;;;;;;;;5050999;28;20399;-86
2023/03/30 02:29:21;;;;;;;3.70;3.10;;;;;;;;;;5037792;28;20463;-85
2023/03/30 02:31:49;;;;;;;2.33;2.13;;;;;;;;;;5052827;28;20419;-86
2023/03/30 02:34:24;;;;;;;2.63;2.20;;;;;;;;;;5062647;28;20418;-85
2023/03/30 02:37:13;;;;;;;8.37;2.27;;;;;;;;;;5050960;28;20413;-85
2023/03/30 02:39:51;;;;;;;4.03;2.20;;;;;;;;;;5058497;28;20477;-85
2023/03/30 02:42:20;;;;;;;2.33;2.00;;;;;;;;;;5051881;28;20424;-86
2023/03/30 02:45:18;;;;;;;1.57;1.50;;;;;;;;;;5057091;28;20479;-86
2023/03/30 02:48:01;;;;;;;1.70;1.60;;;;;;;;;;4995477;28;20480;-85
2023/03/30 02:50:34;;;;;;;3.40;2.03;;;;;;;;;;5059013;28;20520;-86
2023/03/30 02:53:09;;;;;;;2.63;2.43;;;;;;;;;;5050683;28;20409;-84
2023/03/30 02:55:44;;;;;;;2.43;1.50;;;;;;;;;;5057166;28;20930;-85
2023/03/30 02:58:26;;;;;;;5.33;2.57;;;;;;;;;;5051967;28;20406;-84
2023/03/30 03:01:12;;;;;;;9.00;2.80;;;;;;;;;;5055107;28;20485;-85
2023/03/30 03:03:47;;;;;;;3.37;1.87;;;;;;;;;;5048724;28;20912;-84
2023/03/30 03:06:13;;;;;;;5.10;2.00;;;;;;;;;;5050180;28;20480;-85
2023/03/30 03:08:41;;;;;;;3.60;3.03;;;;;;;;;;5065807;28;20460;-86
2023/03/30 03:11:08;;;;;;;2.60;2.00;;;;;;;;;;5052422;28;20470;-85
2023/03/30 03:13:38;;;;;;;1.83;1.70;;;;;;;;;;5048485;28;20427;-84
2023/03/30 03:16:16;;;;;;;3.43;1.90;;;;;;;;;;5060360;28;20437;-85
2023/03/30 03:18:55;;;;;;;1.90;1.80;;;;;;;;;;5056553;28;20475;-85
2023/03/30 03:21:22;;;;;;;4.87;1.70;;;;;;;;;;5048951;28;20403;-85
2023/03/30 03:23:48;;;;;;;1.60;1.60;;;;;;;;;;5064248;28;20445;-84
2023/03/30 03:26:15;;;;;;;1.43;1.37;;;;;;;;;;5051556;28;20433;-81
2023/03/30 03:28:43;;;;;;;1.63;1.50;;;;;;;;;;5063611;28;20430;-86
2023/03/30 03:31:12;;;;;;;2.30;1.80;;;;;;;;;;5053572;28;20467;-85
2023/03/30 03:33:41;;;;;;;1.60;1.47;;;;;;;;;;5048259;28;21007;-86
2023/03/30 03:36:09;;;;;;;6.77;2.90;;;;;;;;;;5050064;28;20422;-86
2023/03/30 03:38:35;;;;;;;3.47;1.87;;;;;;;;;;5024076;28;20516;-86
2023/03/30 03:41:01;;;;;;;2.03;1.67;;;;;;;;;;5055753;28;20452;-86
2023/03/30 03:43:27;;;;;;;2.27;2.07;;;;;;;;;;5044624;28;20450;-86
2023/03/30 03:45:54;;;;;;;2.37;2.00;;;;;;;;;;5059722;28;20781;-85
2023/03/30 03:48:21;;;;;;;6.00;2.20;;;;;;;;;;5053986;28;20440;-85
2023/03/30 03:50:55;;;;;;;2.40;2.20;;;;;;;;;;5042342;28;20462;-86
2023/03/30 03:53:22;;;;;;;5.77;2.10;;;;;;;;;;5047443;28;20430;-85
2023/03/30 03:55:48;;;;;;;1.87;1.77;;;;;;;;;;5045272;28;20459;-86
2023/03/30 03:58:14;;;;;;;3.50;2.43;;;;;;;;;;5057724;28;20427;-86
2023/03/30 04:00:41;;;;;;;3.30;1.70;;;;;;;;;;5048882;28;20465;-85
2023/03/30 04:03:07;;;;;;;2.80;2.70;;;;;;;;;;5043175;28;20497;-86
2023/03/30 04:05:34;;;;;;;2.77;2.40;;;;;;;;;;5058559;28;20465;-86
2023/03/30 04:08:00;;;;;;;4.80;2.50;;;;;;;;;;5055550;28;20823;-86
2023/03/30 04:10:26;;;;;;;3.70;2.33;;;;;;;;;;5052563;28;20545;-86
2023/03/30 04:12:55;;;;;;;7.00;2.63;;;;;;;;;;5058318;28;20456;-86
2023/03/30 04:15:21;;;;;;;2.13;2.03;;;;;;;;;;5054199;28;20636;-85
2023/03/30 04:17:48;;;;;;;11.67;2.17;;;;;;;;;;5067053;28;20418;-86
2023/03/30 04:20:15;;;;;;;6.17;1.77;;;;;;;;;;5054351;28;20440;-86
2023/03/30 04:22:52;;;;;;;4.17;2.30;;;;;;;;;;5045042;28;20437;-86
2023/03/30 04:25:35;;;;;;;2.30;2.20;;;;;;;;;;5059920;28;20938;-85
2023/03/30 04:28:03;;;;;;;4.67;2.07;;;;;;;;;;5034260;28;20458;-85
2023/03/30 04:30:30;;;;;;;5.30;2.93;;;;;;;;;;5047770;28;20756;-85
2023/03/30 04:33:03;;;;;;;2.00;1.67;;;;;;;;;;5059977;28;20445;-86
2023/03/30 04:35:30;;;;;;;2.27;1.60;;;;;;;;;;5065930;28;20430;-85
2023/03/30 04:37:59;;;;;;;2.20;2.00;;;;;;;;;;5045529;28;20422;-86
2023/03/30 04:40:25;;;;;;;4.67;1.93;;;;;;;;;;5063185;28;20425;-86
2023/03/30 04:42:52;;;;;;;3.93;1.50;;;;;;;;;;5059221;28;20438;-81
2023/03/30 04:45:20;;;;;;;12.60;2.70;;;;;;;;;;5046362;28;20688;-86
2023/03/30 04:47:46;;;;;;;2.70;2.40;;;;;;;;;;5051828;28;20449;-86
2023/03/30 04:50:12;;;;;;;3.83;2.10;;;;;;;;;;5049798;28;20465;-83
2023/03/30 04:52:39;;;;;;;6.57;2.43;;;;;;;;;;5055707;28;20419;-85
2023/03/30 04:55:05;;;;;;;1.90;1.77;;;;;;;;;;5067093;28;20431;-83
2023/03/30 04:57:34;;;;;;;6.90;2.40;;;;;;;;;;5051018;28;20433;-86
2023/03/30 05:00:00;;;;;;;1.80;1.77;;;;;;;;;;5061271;28;20454;-87
2023/03/30 05:02:26;;;;;;;3.43;1.63;;;;;;;;;;5059646;28;20479;-85
2023/03/30 05:04:52;;;;;;;1.90;1.80;;;;;;;;;;5065761;28;20437;-86
2023/03/30 05:07:18;;;;;;;2.27;2.07;;;;;;;;;;5066959;28;20444;-86
2023/03/30 05:09:44;;;;;;;1.63;1.53;;;;;;;;;;5052668;28;20470;-85
2023/03/30 05:12:18;;;;;;;6.00;2.13;;;;;;;;;;5060948;28;20434;-84
2023/03/30 05:14:47;;;;;;;1.90;1.80;;;;;;;;;;5069736;28;20444;-86
2023/03/30 05:17:14;;;;;;;4.20;2.57;;;;;;;;;;5060638;28;20564;-84
2023/03/30 05:19:40;;;;;;;3.70;2.10;;;;;;;;;;5056243;28;20434;-86
2023/03/30 05:22:07;;;;;;;1.63;1.63;;;;;;;;;;5051068;28;20426;-85
2023/03/30 05:24:33;;;;;;;4.17;2.67;;;;;;;;;;5068428;28;20452;-83
2023/03/30 05:27:01;;;;;;;7.00;2.57;;;;;;;;;;5050767;28;20491;-87
2023/03/30 05:29:27;;;;;;;5.90;2.17;;;;;;;;;;5043624;28;20477;-85
2023/03/30 05:31:56;;;;;;;9.50;2.37;;;;;;;;;;5066590;28;20477;-85
2023/03/30 05:34:22;;;;;;;2.57;2.43;;;;;;;;;;5062642;28;20499;-86
2023/03/30 05:36:48;;;;;;;3.00;2.27;;;;;;;;;;5056346;28;21038;-85
2023/03/30 05:39:14;;;;;;;2.17;1.93;;;;;;;;;;5046159;28;20787;-84
2023/03/30 05:41:40;;;;;;;2.00;1.70;;;;;;;;;;5049846;28;20493;-85
2023/03/30 05:44:07;;;;;;;1.73;1.63;;;;;;;;;;5022000;28;20456;-82
2023/03/30 05:46:33;;;;;;;4.33;2.03;;;;;;;;;;5040086;28;20896;-82
2023/03/30 05:49:00;;;;;;;2.13;1.93;;;;;;;;;;5030453;28;20443;-83
2023/03/30 05:51:26;;;;;;;2.67;2.23;;;;;;;;;;5040945;28;20448;-82
2023/03/30 05:53:52;;;;;;;2.57;2.30;;;;;;;;;;5043936;28;20865;-82
2023/03/30 05:56:18;;;;;;;4.97;2.00;;;;;;;;;;5052965;28;20441;-82
2023/03/30 05:58:44;;;;;;;1.50;1.50;;;;;;;;;;5045652;28;20442;-80
2023/03/30 06:01:12;;;;;;;7.03;2.70;;;;;;;;;;5048066;28;20410;-84
2023/03/30 06:03:40;;;;;;;1.53;1.43;;;;;;;;;;5045408;28;21021;-80
2023/03/30 06:06:07;;;;;;;2.50;1.90;;;;;;;;;;5022691;28;20425;-84
2023/03/30 06:08:33;;;;;;;2.37;1.57;;;;;;;;;;5043632;28;20446;-85
2023/03/30 06:11:00;;;;;;;3.10;1.50;;;;;;;;;;5037998;28;20951;-84
2023/03/30 06:13:26;;;;;;;3.60;1.57;;;;;;;;;;5039279;28;20446;-83
2023/03/30 06:15:55;;;;;;;2.13;1.80;;;;;;;;;;5068118;28;20426;-81
2023/03/30 06:18:22;;;;;;;1.67;1.60;;;;;;;;;;5053251;28;20465;-85
2023/03/30 06:20:49;;;;;;;4.93;1.87;;;;;;;;;;5052226;28;20941;-80
2023/03/30 06:23:15;;;;;;;2.00;1.90;;;;;;;;;;5036205;28;20449;-81
2023/03/30 06:25:45;;;;;;;1.70;1.70;;;;;;;;;;5042111;28;20439;-81
2023/03/30 06:28:11;;;;;;;1.70;1.47;;;;;;;;;;5042820;28;20457;-81
2023/03/30 06:30:38;;;;;;;1.70;1.60;;;;;;;;;;5038586;28;20462;-82
2023/03/30 06:33:04;;;;;;;1.90;1.70;;;;;;;;;;5046183;28;20449;-81
2023/03/30 06:35:30;;;;;;;5.27;2.07;;;;;;;;;;5031071;28;20410;-81
2023/03/30 06:37:56;;;;;;;6.70;2.37;;;;;;;;;;5042081;28;20833;-81
2023/03/30 06:40:22;;;;;;;1.80;1.80;;;;;;;;;;5045489;28;20429;-82
2023/03/30 06:42:48;;;;;;;1.13;1.10;;;;;;;;;;5046514;28;20464;-80
2023/03/30 06:45:15;;;;;;;2.13;2.03;;;;;;;;;;5043962;28;20429;-81
2023/03/30 06:47:41;;;;;;;3.40;2.63;;;;;;;;;;5038145;28;20449;-81
2023/03/30 06:50:07;;;;;;;4.33;1.70;;;;;;;;;;5036586;28;20466;-81
2023/03/30 06:52:34;;;;;;;1.63;1.47;;;;;;;;;;5045497;28;20452;-82
2023/03/30 06:55:00;;;;;;;2.33;2.20;;;;;;;;;;5055670;28;20484;-81
2023/03/30 06:57:26;;;;;;;3.73;1.90;;;;;;;;;;5046694;28;21108;-79
2023/03/30 06:59:52;;;;;;;7.13;1.87;;;;;;;;;;5053109;28;20457;-82
2023/03/30 07:02:18;;;;;;;1.37;1.37;;;;;;;;;;5035519;28;20863;-80
2023/03/30 07:04:45;;;;;;;1.83;1.67;;;;;;;;;;5059331;28;20437;-80
2023/03/30 07:07:20;;;;;;;2.00;1.70;;;;;;;;;;5055391;28;20433;-81
2023/03/30 07:09:49;;;;;;;1.90;1.63;;;;;;;;;;5045189;28;20553;-80
2023/03/30 07:12:15;;;;;;;1.60;1.60;;;;;;;;;;5049018;28;20540;-80
2023/03/30 07:14:41;;;;;;;1.80;1.33;;;;;;;;;;5043660;28;20464;-80
2023/03/30 07:17:08;;;;;;;2.37;1.70;;;;;;;;;;5027457;28;20429;-80
2023/03/30 07:19:35;;;;;;;1.70;1.70;;;;;;;;;;5040106;28;20518;-81
2023/03/30 07:22:01;;;;;;;1.70;1.60;;;;;;;;;;5052645;28;20437;-79
2023/03/30 07:24:28;;;;;;;2.07;1.23;;;;;;;;;;5026821;28;20799;-80
2023/03/30 07:26:54;;;;;;;1.60;1.60;;;;;;;;;;5049736;28;20410;-83
2023/03/30 07:29:20;;;;;;;2.40;2.30;;;;;;;;;;5040327;28;20463;-81
2023/03/30 07:31:46;;;;;;;1.43;1.40;;;;;;;;;;5028140;28;20569;-81
2023/03/30 07:34:13;;;;;;;1.50;1.50;;;;;;;;;;5050337;28;20464;-80
2023/03/30 07:36:39;;;;;;;2.00;1.77;;;;;;;;;;5063309;28;20434;-80
2023/03/30 07:39:07;;;;;;;1.50;1.40;;;;;;;;;;5064646;28;20416;-82
2023/03/30 07:41:32;;;;;;;1.93;1.57;;;;;;;;;;5027354;28;20455;-81
2023/03/30 07:43:59;;;;;;;17.93;9.63;;;;;;;;;;5044779;28;20430;-83
2023/03/30 07:46:25;;;;;;;1.70;1.70;;;;;;;;;;5056867;28;20457;-80
2023/03/30 07:48:51;;;;;;;6.33;1.80;;;;;;;;;;5057353;28;20548;-80
2023/03/30 07:51:18;;;;;;;2.40;2.17;;;;;;;;;;5058983;28;20476;-81
2023/03/30 07:53:47;;;;;;;1.43;1.30;;;;;;;;;;5044680;28;20843;-81
2023/03/30 07:56:13;;;;;;;0.97;0.97;;;;;;;;;;5033290;28;20429;-81
2023/03/30 07:58:39;;;;;;;1.77;1.67;;;;;;;;;;5056643;28;20426;-80
2023/03/30 08:01:09;;;;;;;2.00;1.37;;;;;;;;;;5063414;28;20446;-79
2023/03/30 08:03:35;;;;;;;1.47;1.37;;;;;;;;;;5035078;28;20454;-81
2023/03/30 08:06:09;;;;;;;1.70;1.40;;;;;;;;;;5060761;28;20426;-81
2023/03/30 08:08:37;;;;;;;3.07;1.93;;;;;;;;;;5062378;28;20446;-84
2023/03/30 08:11:04;;;;;;;1.70;1.60;;;;;;;;;;5053799;28;20469;-82
2023/03/30 08:13:31;;;;;;;0.90;0.90;;;;;;;;;;5070623;28;20429;-83
2023/03/30 08:15:57;;;;;;;1.00;1.00;;;;;;;;;;5056572;28;20454;-84
2023/03/30 08:20:55;;;;;;;1.33;1.20;;;;;;;;;;5054749;28;20415;-84
2023/03/30 08:23:21;;;;;;;1.60;1.50;;;;;;;;;;5062756;28;20434;-84
2023/03/30 08:25:53;;;;;;;1.90;1.47;;;;;;;;;;5051185;28;20495;-81
2023/03/30 08:28:20;;;;;;;5.20;3.20;;;;;;;;;;5305013;23;20490;-84
2023/03/30 08:30:46;;;;;;;3.07;1.40;;;;;;;;;;5091226;22;20498;-81
2023/03/30 08:36:08;;;;;;;8.37;2.20;;;;;;;;;;5056651;23;20497;-83
2023/03/30 08:38:35;;;;;;;2.00;1.83;;;;;;;;;;5090925;23;20469;-82
2023/03/30 08:41:18;;;;;;;1.53;1.43;;;;;;;;;;5064732;28;20715;-84
2023/03/30 08:43:50;;;;;;;1.53;1.50;;;;;;;;;;5068053;28;20437;-86
2023/03/30 08:46:17;;;;;;;1.40;1.30;;;;;;;;;;5054031;28;20806;-84
2023/03/30 08:48:43;;;;;;;1.17;0.90;;;;;;;;;;5074472;28;20436;-85
2023/03/30 08:51:20;;;;;;;4.13;1.37;;;;;;;;;;5074314;28;20472;-84
2023/03/30 08:53:55;;;;;;;3.43;1.27;;;;;;;;;;5063457;28;20457;-84
2023/03/30 08:56:25;;;;;;;3.63;1.10;;;;;;;;;;5050744;28;20428;-85
2023/03/30 08:59:03;;;;;;;2.00;1.90;;;;;;;;;;5064145;28;20456;-85
2023/03/30 09:01:51;;;;;;;2.50;1.40;;;;;;;;;;5076433;28;20457;-86
2023/03/30 09:04:21;;;;;;;1.83;1.73;;;;;;;;;;5068804;28;20445;-86
2023/03/30 09:06:50;;;;;;;1.40;1.30;;;;;;;;;;5073827;28;20421;-85
2023/03/30 09:09:21;;;;;;;1.93;1.50;;;;;;;;;;5053168;28;20466;-84
2023/03/30 09:11:50;;;;;;;4.03;1.57;;;;;;;;;;5071033;28;20434;-83
2023/03/30 09:14:48;;;;;;;0.80;0.80;;;;;;;;;;5074596;28;20530;-84
2023/03/30 09:17:16;;;;;;;1.47;1.37;;;;;;;;;;4990161;28;20468;-85
2023/03/30 09:19:53;;;;;;;2.20;1.93;;;;;;;;;;5043410;23;20570;-93
2023/03/30 09:22:20;;;;;;;4.97;2.10;;;;;;;;;;5007187;28;20447;-93
2023/03/30 09:24:50;;;;;;;1.67;1.50;;;;;;;;;;5006475;28;21083;-94
2023/03/30 09:27:34;;;;;;;31.77;3.10;;;;;;;;;;5020496;28;20427;-91
2023/03/30 09:30:09;;;;;;;3.37;1.70;;;;;;;;;;5020518;28;20562;-92
2023/03/30 09:32:42;;;;;;;3.43;2.20;;;;;;;;;;5007821;28;20505;-92
2023/03/30 09:35:11;;;;;;;3.17;1.50;;;;;;;;;;4996297;28;20440;-92
2023/03/30 09:37:45;;;;;;;2.40;2.13;;;;;;;;;;5007891;28;20524;-92
2023/03/30 09:40:31;;;;;;;4.63;1.93;;;;;;;;;;5030737;28;20477;-92
2023/03/30 09:43:05;;;;;;;3.90;2.00;;;;;;;;;;5004036;28;20471;-92
2023/03/30 09:45:33;;;;;;;1.77;1.67;;;;;;;;;;5011454;28;20439;-92
2023/03/30 09:48:11;;;;;;;3.33;1.57;;;;;;;;;;4987112;28;20436;-92
2023/03/30 09:50:38;;;;;;;5.17;1.80;;;;;;;;;;4994721;28;20499;-90
2023/03/30 09:53:09;;;;;;;2.73;1.53;;;;;;;;;;5001490;28;20471;-93
2023/03/30 09:55:39;;;;;;;3.63;1.87;;;;;;;;;;4993090;28;20504;-90
2023/03/30 09:58:30;;;;;;;2.50;1.13;;;;;;;;;;4996933;28;20436;-89
2023/03/30 10:01:11;;;;;;;3.10;1.97;;;;;;;;;;5009111;28;20450;-92
2023/03/30 10:04:17;;;;;;;7.63;2.63;;;;;;;;;;4993968;28;20486;-89
2023/03/30 10:06:55;;;;;;;3.83;1.70;;;;;;;;;;4999138;28;20427;-89
2023/03/30 10:09:23;;;;;;;8.13;2.57;;;;;;;;;;5026304;23;20498;-86
2023/03/30 10:11:55;;;;;;;2.90;1.50;;;;;;;;;;4994215;28;20441;-83
2023/03/30 10:14:47;;;;;;;5.97;1.90;;;;;;;;;;5035298;23;20494;-91
2023/03/30 10:17:20;;;;;;;4.97;1.50;;;;;;;;;;5050110;23;20521;-84
2023/03/30 10:19:46;;;;;;;4.70;2.10;;;;;;;;;;5053093;28;20660;-83
2023/03/30 10:22:22;;;;;;;3.70;2.03;;;;;;;;;;5037276;28;20442;-84
2023/03/30 10:24:55;;;;;;;3.30;1.90;;;;;;;;;;5046229;28;20755;-84
2023/03/30 10:27:29;;;;;;;5.67;1.80;;;;;;;;;;5046282;28;20737;-84
2023/03/30 10:30:16;;;;;;;2.53;1.80;;;;;;;;;;5041295;28;20488;-84
2023/03/30 10:32:47;;;;;;;4.03;1.80;;;;;;;;;;5047769;28;20442;-84
2023/03/30 10:35:18;;;;;;;12.77;5.80;;;;;;;;;;5151333;22;20566;-90
2023/03/30 10:37:45;;;;;;;4.83;1.70;;;;;;;;;;5060712;28;20434;-89
2023/03/30 10:40:36;;;;;;;2.03;1.90;;;;;;;;;;5041908;28;20823;-90
2023/03/30 10:43:03;;;;;;;1.33;1.33;;;;;;;;;;5042414;28;20435;-91
2023/03/30 10:45:38;;;;;;;2.93;2.43;;;;;;;;;;5041460;28;20458;-88
2023/03/30 10:48:15;;;;;;;1.97;1.87;;;;;;;;;;5057002;28;20414;-91
2023/03/30 10:50:41;;;;;;;3.33;1.20;;;;;;;;;;5041818;28;20489;-93
2023/03/30 10:53:08;;;;;;;5.73;1.83;;;;;;;;;;5054964;28;20505;-92
2023/03/30 10:55:34;;;;;;;3.60;2.30;;;;;;;;;;5052771;28;20458;-91
2023/03/30 11:04:27;;;;;;;10.97;3.20;;;;;;;;;;5029195;23;20490;-77
2023/03/30 11:06:57;;;;;;;287.87;28.83;;;;;;;;;;5008766;28;20443;-78
2023/03/30 11:09:27;;;;;;;3.40;2.50;;;;;;;;;;5003702;28;20451;-78
2023/03/30 11:12:00;;;;;;;2.20;1.20;;;;;;;;;;5004161;28;20435;-78
2023/03/30 11:14:32;;;;;;;37.67;6.50;;;;;;;;;;5003582;28;20955;-78
2023/03/30 11:17:21;;;;;;;5.17;2.10;;;;;;;;;;5005422;28;20435;-78
2023/03/30 11:19:49;;;;;;;4.50;1.83;;;;;;;;;;4987666;28;20436;-80
2023/03/30 11:22:15;;;;;;;2.20;1.83;;;;;;;;;;5011012;28;20507;-85
2023/03/30 11:24:42;;;;;;;3.67;2.20;;;;;;;;;;5021554;28;20507;-85
2023/03/30 11:27:17;;;;;;;1.87;1.73;;;;;;;;;;5020427;28;20439;-85
2023/03/30 11:29:43;;;;;;;3.83;2.67;;;;;;;;;;5027411;28;20466;-83
2023/03/30 11:32:19;;;;;;;3.67;2.23;;;;;;;;;;5031418;28;20447;-80
2023/03/30 11:34:45;;;;;;;4.57;2.70;;;;;;;;;;5029609;28;20445;-83
2023/03/30 11:37:34;;;;;;;2.73;2.53;;;;;;;;;;5023016;28;20800;-84
2023/03/30 11:40:17;;;;;;;6.00;2.00;;;;;;;;;;5025388;28;20439;-85
2023/03/30 11:42:43;;;;;;;3.63;2.90;;;;;;;;;;5028672;28;20530;-86
2023/03/30 11:45:25;;;;;;;4.53;2.00;;;;;;;;;;5029930;28;20423;-81
2023/03/30 11:48:00;;;;;;;4.27;1.93;;;;;;;;;;5043326;28;20435;-82
2023/03/30 11:50:31;;;;;;;3.37;2.13;;;;;;;;;;5024308;28;20841;-81
2023/03/30 11:53:03;;;;;;;3.17;2.00;;;;;;;;;;5032301;28;20426;-84
2023/03/30 11:55:47;;;;;;;5.07;2.10;;;;;;;;;;5023760;28;20439;-84
2023/03/30 11:58:19;;;;;;;5.00;2.07;;;;;;;;;;5040214;28;20434;-85
2023/03/30 12:01:03;;;;;;;1.83;1.83;;;;;;;;;;5014184;28;20493;-84
2023/03/30 12:03:36;;;;;;;1.77;1.60;;;;;;;;;;5041559;28;20446;-84
2023/03/30 12:06:21;;;;;;;5.20;1.63;;;;;;;;;;5051218;28;20433;-85
2023/03/30 12:08:47;;;;;;;2.10;2.00;;;;;;;;;;5054119;28;20748;-78
2023/03/30 12:11:18;;;;;;;4.33;1.93;;;;;;;;;;5048488;28;20477;-78
2023/03/30 12:13:44;;;;;;;3.50;1.90;;;;;;;;;;5037351;28;20640;-80
2023/03/30 12:16:15;;;;;;;1.10;1.10;;;;;;;;;;5038774;28;20522;-78
2023/03/30 12:18:44;;;;;;;5.07;2.23;;;;;;;;;;5043259;28;20418;-79
2023/03/30 12:21:22;;;;;;;4.17;1.27;;;;;;;;;;5046046;28;20484;-78
2023/03/30 12:24:12;;;;;;;1.63;1.50;;;;;;;;;;5021266;28;20470;-79
2023/03/30 12:26:38;;;;;;;1.03;1.03;;;;;;;;;;5039399;28;20445;-79
2023/03/30 12:29:05;;;;;;;7.37;1.57;;;;;;;;;;5038830;28;20438;-78
2023/03/30 12:32:02;;;;;;;2.93;1.77;;;;;;;;;;5034851;28;20596;-78
2023/03/30 12:34:31;;;;;;;1.07;1.07;;;;;;;;;;5029073;28;20436;-82
2023/03/30 12:37:05;;;;;;;2.27;2.13;;;;;;;;;;5041616;28;20426;-79
2023/03/30 12:39:34;;;;;;;2.77;1.43;;;;;;;;;;5036122;28;20438;-77
2023/03/30 12:42:06;;;;;;;3.57;1.77;;;;;;;;;;5027520;28;20461;-78
2023/03/30 12:44:35;;;;;;;3.23;2.00;;;;;;;;;;5044533;28;20482;-79
2023/03/30 12:47:01;;;;;;;4.10;1.67;;;;;;;;;;5033395;28;20545;-78
2023/03/30 12:49:29;;;;;;;5.20;1.40;;;;;;;;;;5029068;28;20477;-79
2023/03/30 12:52:08;;;;;;;2.80;1.33;;;;;;;;;;5046302;28;20422;-80
2023/03/30 12:54:49;;;;;;;3.00;1.60;;;;;;;;;;5036539;28;20998;-79
2023/03/30 12:57:34;;;;;;;1.40;1.30;;;;;;;;;;5045595;28;20437;-79
2023/03/30 13:00:08;;;;;;;1.80;1.40;;;;;;;;;;5039232;28;20453;-80
2023/03/30 13:02:40;;;;;;;4.60;1.60;;;;;;;;;;5056572;28;20441;-83
2023/03/30 13:05:23;;;;;;;1.67;1.53;;;;;;;;;;5035771;28;20474;-83
2023/03/30 13:07:50;;;;;;;7.57;1.93;;;;;;;;;;5026207;28;20445;-82
2023/03/30 13:10:28;;;;;;;3.03;2.50;;;;;;;;;;5013376;28;20550;-81
2023/03/30 13:12:58;;;;;;;11.50;2.90;;;;;;;;;;5018780;28;20438;-82
2023/03/30 13:15:43;;;;;;;5.43;3.20;;;;;;;;;;5025997;28;20446;-82
2023/03/30 13:18:09;;;;;;;13.83;4.13;;;;;;;;;;5028925;28;20601;-82
2023/03/30 13:20:36;;;;;;;3.17;2.10;;;;;;;;;;5012480;28;20436;-82
2023/03/30 13:23:08;;;;;;;3.40;2.93;;;;;;;;;;5029923;28;20450;-84
2023/03/30 13:25:40;;;;;;;6.93;2.33;;;;;;;;;;5027785;28;20994;-84
2023/03/30 13:28:31;;;;;;;8.67;3.30;;;;;;;;;;5015671;28;20465;-82
2023/03/30 13:31:00;;;;;;;6.43;1.90;;;;;;;;;;5036010;28;20534;-85
2023/03/30 13:33:29;;;;;;;2.60;1.63;;;;;;;;;;5033108;28;20419;-84
2023/03/30 13:36:02;;;;;;;4.27;2.17;;;;;;;;;;5026772;28;20803;-84
2023/03/30 13:38:31;;;;;;;2.83;1.63;;;;;;;;;;5016393;28;20828;-82
2023/03/30 13:41:03;;;;;;;1.50;1.50;;;;;;;;;;5020322;28;20411;-82
2023/03/30 13:43:46;;;;;;;3.33;1.83;;;;;;;;;;5017448;28;20431;-83
2023/03/30 13:46:24;;;;;;;1.30;1.23;;;;;;;;;;5004669;28;20700;-83
2023/03/30 13:48:50;;;;;;;1.80;1.70;;;;;;;;;;5042890;28;20449;-83
2023/03/30 13:51:18;;;;;;;2.60;1.73;;;;;;;;;;5043200;28;20492;-83
2023/03/30 13:53:46;;;;;;;2.43;1.90;;;;;;;;;;5031873;28;20426;-82
2023/03/30 13:56:12;;;;;;;3.50;1.90;;;;;;;;;;5031770;28;20407;-82
2023/03/30 13:58:41;;;;;;;4.70;1.90;;;;;;;;;;5005100;28;20517;-82
2023/03/30 14:01:09;;;;;;;1.87;1.77;;;;;;;;;;5021838;28;20427;-79
2023/03/30 14:03:39;;;;;;;2.93;1.83;;;;;;;;;;5022990;28;20455;-81
2023/03/30 14:06:16;;;;;;;2.30;1.47;;;;;;;;;;5016512;28;20518;-80
2023/03/30 14:08:46;;;;;;;1.47;1.13;;;;;;;;;;5012236;28;20438;-83
2023/03/30 14:11:17;;;;;;;1.97;1.87;;;;;;;;;;5017673;28;20975;-82
2023/03/30 14:13:45;;;;;;;3.60;2.03;;;;;;;;;;5023172;28;20884;-81
2023/03/30 14:16:13;;;;;;;1.90;1.63;;;;;;;;;;5020943;28;20465;-80
2023/03/30 14:18:42;;;;;;;5.47;2.50;;;;;;;;;;5015428;28;21326;-83
2023/03/30 14:21:10;;;;;;;3.10;2.17;;;;;;;;;;5019608;28;20959;-82
2023/03/30 14:23:36;;;;;;;4.73;2.07;;;;;;;;;;5003530;28;20442;-80
2023/03/30 14:26:06;;;;;;;3.77;1.40;;;;;;;;;;5007258;28;20808;-85
2023/03/30 14:28:36;;;;;;;2.20;1.50;;;;;;;;;;5024544;28;20540;-84
2023/03/30 14:31:04;;;;;;;1.70;0.90;;;;;;;;;;5018053;28;20465;-83
2023/03/30 14:33:34;;;;;;;2.23;1.73;;;;;;;;;;5017514;28;20429;-81
2023/03/30 14:36:02;;;;;;;2.77;1.70;;;;;;;;;;5036690;28;20406;-84
2023/03/30 14:38:45;;;;;;;4.20;1.50;;;;;;;;;;5030827;28;20493;-83
2023/03/30 14:41:21;;;;;;;4.00;1.30;;;;;;;;;;5035817;28;20404;-82
2023/03/30 14:43:58;;;;;;;2.13;1.80;;;;;;;;;;5031854;28;20430;-84
2023/03/30 14:46:27;;;;;;;1.37;1.37;;;;;;;;;;5025516;28;20461;-84
2023/03/30 14:48:53;;;;;;;1.43;1.33;;;;;;;;;;5023483;28;20775;-81
2023/03/30 14:51:22;;;;;;;2.10;1.20;;;;;;;;;;5045644;28;20569;-83
2023/03/30 14:53:48;;;;;;;1.60;1.50;;;;;;;;;;5033545;28;20442;-82
2023/03/30 14:56:16;;;;;;;5.03;1.50;;;;;;;;;;5031029;28;20434;-81
2023/03/30 14:58:43;;;;;;;1.73;1.30;;;;;;;;;;5032291;28;20427;-82
2023/03/30 15:01:15;;;;;;;8.43;2.30;;;;;;;;;;5036537;28;20838;-80
2023/03/30 15:03:41;;;;;;;5.70;1.67;;;;;;;;;;5035777;28;20442;-83
2023/03/30 15:06:07;;;;;;;1.27;1.03;;;;;;;;;;5050751;28;20415;-82
2023/03/30 15:08:36;;;;;;;4.70;1.57;;;;;;;;;;5045179;28;20516;-83
2023/03/30 15:11:11;;;;;;;2.97;1.47;;;;;;;;;;5033528;28;20470;-84
2023/03/30 15:13:43;;;;;;;2.33;1.07;;;;;;;;;;5063624;28;20505;-83
2023/03/30 15:16:11;;;;;;;4.13;2.00;;;;;;;;;;5051709;28;20455;-84
2023/03/30 15:18:37;;;;;;;2.07;1.10;;;;;;;;;;5046570;28;20553;-83